createdAt,value
2023-11-11T00:00:44.585Z,4.50
2023-11-11T00:03:12.318Z,5.10
2023-11-11T00:08:36.645Z,4.50
2023-11-11T00:11:03.744Z,4.90
2023-11-11T00:13:30.615Z,4.70
2023-11-11T00:15:57.406Z,5.10
2023-11-11T00:18:24.273Z,4.90
2023-11-11T00:20:51.268Z,5.10
2023-11-11T00:23:18.127Z,5.10
2023-11-11T00:25:47.306Z,5.10
2023-11-11T00:28:14.663Z,4.60
2023-11-11T00:30:45.338Z,5.00
2023-11-11T00:33:12.338Z,4.70
2023-11-11T00:35:39.023Z,4.90
2023-11-11T00:38:08.144Z,4.90
2023-11-11T00:40:34.760Z,5.90
2023-11-11T00:43:01.480Z,4.60
2023-11-11T00:45:28.378Z,5.70
2023-11-11T00:47:55.309Z,5.40
2023-11-11T00:50:22.108Z,5.80
2023-11-11T00:52:48.936Z,5.50
2023-11-11T00:55:15.696Z,5.30
2023-11-11T00:57:43.995Z,5.10
2023-11-11T01:00:10.982Z,5.30
2023-11-11T01:02:38.078Z,5.50
2023-11-11T01:05:04.945Z,5.40
2023-11-11T01:07:31.835Z,5.10
2023-11-11T01:09:58.734Z,5.10
2023-11-11T01:12:25.548Z,5.20
2023-11-11T01:14:52.429Z,5.20
2023-11-11T01:17:19.317Z,5.60
2023-11-11T01:19:46.790Z,5.60
2023-11-11T01:22:17.035Z,6.50
2023-11-11T01:24:43.982Z,5.30
2023-11-11T01:27:13.184Z,4.70
2023-11-11T01:29:43.594Z,5.50
2023-11-11T01:32:10.530Z,5.30
2023-11-11T01:34:37.353Z,4.90
2023-11-11T01:37:05.722Z,5.20
2023-11-11T01:39:32.389Z,4.70
2023-11-11T01:41:59.026Z,5.40
2023-11-11T01:44:25.714Z,4.80
2023-11-11T01:46:52.609Z,5.30
2023-11-11T01:49:19.316Z,5.70
2023-11-11T01:51:45.986Z,5.50
2023-11-11T01:54:13.060Z,5.80
2023-11-11T01:56:39.594Z,8.30
2023-11-11T01:59:06.388Z,7.10
2023-11-11T02:01:33.143Z,7.20
2023-11-11T02:04:00.242Z,6.50
2023-11-11T02:06:27.104Z,5.40
2023-11-11T02:08:54.905Z,4.90
2023-11-11T02:11:22.085Z,7.10
2023-11-11T02:13:48.867Z,5.80
2023-11-11T02:16:16.700Z,5.90
2023-11-11T02:18:43.490Z,6.30
2023-11-11T02:21:10.116Z,6.70
2023-11-11T02:23:37.383Z,6.50
2023-11-11T02:26:04.474Z,5.70
2023-11-11T02:28:31.520Z,5.90
2023-11-11T02:30:58.462Z,6.60
2023-11-11T02:33:25.180Z,6.40
2023-11-11T02:35:52.411Z,6.20
2023-11-11T02:38:19.171Z,6.30
2023-11-11T02:40:45.696Z,6.70
2023-11-11T02:43:12.296Z,6.20
2023-11-11T02:45:39.036Z,7.00
2023-11-11T02:48:07.248Z,6.10
2023-11-11T02:50:34.113Z,6.10
2023-11-11T02:53:00.714Z,6.90
2023-11-11T02:55:27.862Z,5.80
2023-11-11T02:57:54.775Z,6.20
2023-11-11T03:00:21.860Z,6.50
2023-11-11T03:02:48.681Z,5.60
2023-11-11T03:05:15.274Z,5.50
2023-11-11T03:07:41.806Z,6.20
2023-11-11T03:10:10.471Z,6.80
2023-11-11T03:12:37.432Z,5.80
2023-11-11T03:15:05.114Z,5.00
2023-11-11T03:17:32.006Z,5.60
2023-11-11T03:19:59.502Z,5.30
2023-11-11T03:22:26.574Z,5.20
2023-11-11T03:24:53.306Z,5.20
2023-11-11T03:27:19.970Z,5.30
2023-11-11T03:29:47.250Z,5.50
2023-11-11T03:32:13.884Z,5.40
2023-11-11T03:34:40.428Z,4.60
2023-11-11T03:37:07.161Z,5.90
2023-11-11T03:39:34.391Z,5.40
2023-11-11T03:42:01.026Z,5.10
2023-11-11T03:44:27.843Z,5.70
2023-11-11T03:46:55.936Z,5.50
2023-11-11T03:49:22.604Z,6.00
2023-11-11T03:51:49.217Z,5.20
2023-11-11T03:54:16.718Z,5.90
2023-11-11T03:56:45.162Z,5.60
2023-11-11T03:59:11.778Z,7.00
2023-11-11T04:01:38.634Z,6.20
2023-11-11T04:04:05.476Z,5.10
2023-11-11T04:06:32.276Z,5.50
2023-11-11T04:08:59.194Z,5.90
2023-11-11T04:11:27.670Z,5.40
2023-11-11T04:13:56.468Z,6.50
2023-11-11T04:16:26.818Z,5.20
2023-11-11T04:18:54.005Z,5.10
2023-11-11T04:21:20.650Z,5.90
2023-11-11T04:23:47.338Z,5.70
2023-11-11T04:26:13.946Z,5.70
2023-11-11T04:28:44.433Z,5.50
2023-11-11T04:31:14.274Z,6.00
2023-11-11T04:33:40.931Z,5.10
2023-11-11T04:36:07.727Z,5.70
2023-11-11T04:38:37.768Z,5.60
2023-11-11T04:41:05.469Z,5.20
2023-11-11T04:43:35.401Z,5.40
2023-11-11T04:46:03.079Z,5.50
2023-11-11T04:48:30.091Z,8.40
2023-11-11T04:50:56.914Z,7.40
2023-11-11T04:53:23.662Z,6.20
2023-11-11T04:55:50.284Z,5.90
2023-11-11T04:58:17.744Z,5.70
2023-11-11T05:00:44.843Z,5.20
2023-11-11T05:03:11.630Z,5.10
2023-11-11T05:05:38.359Z,5.60
2023-11-11T05:08:05.366Z,5.40
2023-11-11T05:10:34.085Z,4.90
2023-11-11T05:13:02.140Z,5.10
2023-11-11T05:15:30.651Z,5.00
2023-11-11T05:17:57.900Z,5.30
2023-11-11T05:20:24.609Z,6.20
2023-11-11T05:22:51.363Z,4.90
2023-11-11T05:25:19.344Z,5.10
2023-11-11T05:27:46.668Z,4.50
2023-11-11T05:30:13.451Z,5.40
2023-11-11T05:32:41.253Z,5.40
2023-11-11T05:35:08.851Z,5.30
2023-11-11T05:37:35.505Z,5.20
2023-11-11T05:40:02.542Z,6.10
2023-11-11T05:42:29.522Z,5.70
2023-11-11T05:44:56.183Z,6.30
2023-11-11T05:47:23.964Z,7.30
2023-11-11T05:49:50.871Z,10.50
2023-11-11T05:52:17.558Z,9.90
2023-11-11T05:54:44.700Z,10.70
2023-11-11T05:57:11.432Z,8.50
2023-11-11T05:59:38.059Z,8.20
2023-11-11T06:02:06.326Z,8.20
2023-11-11T06:04:36.585Z,6.50
2023-11-11T06:07:03.691Z,7.10
2023-11-11T06:09:31.066Z,10.80
2023-11-11T06:11:58.130Z,10.90
2023-11-11T06:14:24.890Z,9.50
2023-11-11T06:16:51.586Z,9.60
2023-11-11T06:19:18.982Z,9.60
2023-11-11T06:21:46.673Z,10.00
2023-11-11T06:24:13.400Z,10.30
2023-11-11T06:26:40.142Z,8.70
2023-11-11T06:29:09.588Z,9.40
2023-11-11T06:31:36.235Z,9.70
2023-11-11T06:34:05.249Z,11.20
2023-11-11T06:36:32.192Z,9.00
2023-11-11T06:38:58.779Z,12.90
2023-11-11T06:41:26.196Z,16.40
2023-11-11T06:43:53.413Z,13.00
2023-11-11T06:46:20.223Z,13.00
2023-11-11T06:48:47.066Z,12.90
2023-11-11T06:51:13.982Z,16.10
2023-11-11T06:53:40.654Z,14.50
2023-11-11T06:56:07.226Z,14.30
2023-11-11T06:58:34.051Z,12.70
2023-11-11T07:01:01.023Z,15.50
2023-11-11T07:03:29.421Z,17.10
2023-11-11T07:05:57.180Z,17.40
2023-11-11T07:08:23.896Z,14.70
2023-11-11T07:10:50.592Z,14.10
2023-11-11T07:13:18.545Z,17.70
2023-11-11T07:15:45.352Z,16.90
2023-11-11T07:18:12.770Z,15.70
2023-11-11T07:20:40.485Z,13.90
2023-11-11T07:23:07.003Z,13.10
2023-11-11T07:25:34.348Z,16.10
2023-11-11T07:28:04.760Z,15.10
2023-11-11T07:30:31.754Z,14.90
2023-11-11T07:33:02.006Z,15.00
2023-11-11T07:35:30.070Z,15.30
2023-11-11T07:37:57.108Z,16.10
2023-11-11T07:40:25.657Z,14.50
2023-11-11T07:42:53.865Z,15.70
2023-11-11T07:45:24.013Z,16.60
2023-11-11T07:47:50.843Z,16.10
2023-11-11T07:50:18.674Z,16.60
2023-11-11T07:52:45.561Z,16.90
2023-11-11T07:55:12.710Z,15.50
2023-11-11T08:00:09.908Z,16.80
2023-11-11T08:02:38.408Z,15.80
2023-11-11T08:05:05.628Z,17.00
2023-11-11T08:07:32.340Z,17.90
2023-11-11T08:09:59.328Z,18.90
2023-11-11T08:12:26.065Z,22.80
2023-11-11T08:14:52.890Z,23.90
2023-11-11T08:17:20.179Z,27.00
2023-11-11T08:19:47.668Z,25.00
2023-11-11T08:22:14.651Z,29.20
2023-11-11T08:24:41.465Z,21.30
2023-11-11T08:27:09.572Z,24.40
2023-11-11T08:29:36.304Z,26.00
2023-11-11T08:32:03.140Z,24.10
2023-11-11T08:34:31.689Z,30.30
2023-11-11T08:36:58.660Z,23.50
2023-11-11T08:39:25.819Z,23.60
2023-11-11T08:41:52.819Z,24.10
2023-11-11T08:44:20.520Z,20.30
2023-11-11T08:46:47.402Z,21.80
2023-11-11T08:49:14.416Z,22.00
2023-11-11T08:51:41.607Z,22.00
2023-11-11T08:54:08.404Z,20.70
2023-11-11T08:56:35.416Z,20.80
2023-11-11T08:59:09.175Z,21.40
2023-11-11T09:01:36.622Z,24.40
2023-11-11T09:04:03.996Z,23.50
2023-11-11T09:06:31.317Z,25.10
2023-11-11T09:08:58.187Z,22.40
2023-11-11T09:11:25.668Z,22.90
2023-11-11T09:13:53.128Z,22.20
2023-11-11T09:16:20.103Z,19.30
2023-11-11T09:18:47.963Z,19.30
2023-11-11T09:21:17.563Z,19.20
2023-11-11T09:23:44.732Z,16.90
2023-11-11T09:26:11.579Z,16.10
2023-11-11T09:28:39.347Z,16.50
2023-11-11T09:31:06.617Z,17.10
2023-11-11T09:33:33.628Z,15.70
2023-11-11T09:36:01.352Z,16.00
2023-11-11T09:38:28.393Z,17.30
2023-11-11T09:40:56.195Z,16.70
2023-11-11T09:43:23.457Z,16.70
2023-11-11T09:45:51.265Z,18.10
2023-11-11T09:48:18.265Z,15.70
2023-11-11T09:50:45.201Z,16.50
2023-11-11T09:53:15.590Z,17.30
2023-11-11T09:55:43.802Z,16.50
2023-11-11T09:58:11.020Z,19.00
2023-11-11T10:00:38.936Z,19.10
2023-11-11T10:03:06.108Z,19.10
2023-11-11T10:05:32.990Z,18.90
2023-11-11T10:07:59.625Z,17.50
2023-11-11T10:10:26.526Z,19.50
2023-11-11T10:12:53.886Z,18.70
2023-11-11T10:15:22.180Z,19.40
2023-11-11T10:17:49.878Z,19.60
2023-11-11T10:20:17.082Z,19.80
2023-11-11T10:22:45.647Z,20.40
2023-11-11T10:25:18.129Z,18.00
2023-11-11T10:27:52.194Z,18.80
2023-11-11T10:30:20.239Z,20.40
2023-11-11T10:32:49.311Z,20.70
2023-11-11T10:35:17.593Z,19.00
2023-11-11T10:37:44.683Z,19.90
2023-11-11T10:40:13.118Z,20.60
2023-11-11T10:42:40.377Z,20.40
2023-11-11T10:45:07.443Z,20.60
2023-11-11T10:47:35.418Z,21.00
2023-11-11T10:50:03.482Z,18.70
2023-11-11T10:52:30.348Z,22.30
2023-11-11T10:54:59.223Z,22.50
2023-11-11T10:57:26.096Z,20.10
2023-11-11T10:59:52.869Z,20.50
2023-11-11T11:02:19.659Z,21.90
2023-11-11T11:04:49.304Z,20.70
2023-11-11T11:07:19.623Z,19.40
2023-11-11T11:09:54.570Z,18.70
2023-11-11T11:12:43.588Z,18.50
2023-11-11T11:15:13.995Z,18.90
2023-11-11T11:17:44.418Z,18.70
2023-11-11T11:20:21.116Z,18.90
2023-11-11T11:22:48.048Z,21.30
2023-11-11T11:25:42.168Z,18.40
2023-11-11T11:28:12.671Z,18.70
2023-11-11T11:30:44.845Z,17.80
2023-11-11T11:33:20.729Z,19.30
2023-11-11T11:35:48.404Z,19.90
2023-11-11T11:38:24.201Z,18.40
2023-11-11T11:40:51.992Z,20.10
2023-11-11T11:43:31.891Z,16.30
2023-11-11T11:45:59.192Z,15.70
2023-11-11T11:48:29.857Z,15.50
2023-11-11T11:51:24.273Z,15.60
2023-11-11T11:53:54.364Z,16.20
2023-11-11T11:56:28.828Z,15.10
2023-11-11T11:58:55.996Z,15.30
2023-11-11T12:01:27.582Z,16.60
2023-11-11T12:03:55.510Z,17.10
2023-11-11T12:06:26.954Z,16.80
2023-11-11T12:08:55.286Z,13.80
2023-11-11T12:11:24.633Z,14.70
2023-11-11T12:13:55.319Z,16.20
2023-11-11T12:16:43.423Z,15.50
2023-11-11T12:19:11.332Z,13.80
2023-11-11T12:21:43.598Z,13.00
2023-11-11T12:24:14.855Z,12.50
2023-11-11T12:26:44.699Z,12.70
2023-11-11T12:29:11.551Z,12.70
2023-11-11T12:31:50.614Z,11.90
2023-11-11T12:34:19.291Z,12.00
2023-11-11T12:36:52.900Z,11.90
2023-11-11T12:39:25.826Z,10.90
2023-11-11T12:41:55.095Z,10.60
2023-11-11T12:44:25.444Z,10.60
2023-11-11T12:46:52.816Z,11.00
2023-11-11T12:49:21.050Z,10.10
2023-11-11T12:51:48.021Z,10.50
2023-11-11T12:54:15.844Z,11.00
2023-11-11T12:56:49.089Z,13.30
2023-11-11T12:59:16.785Z,11.70
2023-11-11T13:01:43.854Z,15.80
2023-11-11T13:04:13.022Z,12.90
2023-11-11T13:06:40.359Z,10.20
2023-11-11T13:09:14.939Z,10.10
2023-11-11T13:11:44.170Z,8.90
2023-11-11T13:14:13.312Z,11.10
2023-11-11T13:16:43.785Z,10.20
2023-11-11T13:19:10.632Z,10.00
2023-11-11T13:21:39.500Z,9.00
2023-11-11T13:24:10.151Z,8.60
2023-11-11T13:26:37.676Z,8.00
2023-11-11T13:29:05.745Z,10.00
2023-11-11T13:31:32.919Z,8.30
2023-11-11T13:33:59.975Z,10.30
2023-11-11T13:36:35.153Z,10.70
2023-11-11T13:39:01.912Z,9.40
2023-11-11T13:41:37.049Z,8.70
2023-11-11T13:44:04.488Z,9.60
2023-11-11T13:46:31.989Z,10.00
2023-11-11T13:49:00.643Z,12.70
2023-11-11T13:51:27.584Z,14.70
2023-11-11T13:53:55.982Z,13.10
2023-11-11T13:56:23.683Z,12.10
2023-11-11T13:58:56.394Z,10.90
2023-11-11T14:01:25.271Z,10.60
2023-11-11T14:03:54.061Z,14.40
2023-11-11T14:06:22.186Z,15.30
2023-11-11T14:08:51.530Z,14.80
2023-11-11T14:11:18.524Z,16.50
2023-11-11T14:13:45.204Z,16.20
2023-11-11T14:16:12.018Z,14.80
2023-11-11T14:18:39.712Z,14.20
2023-11-11T14:21:06.720Z,16.60
2023-11-11T14:23:35.978Z,18.20
2023-11-11T14:26:07.014Z,14.60
2023-11-11T14:28:34.213Z,15.40
2023-11-11T14:31:01.185Z,16.10
2023-11-11T14:33:29.760Z,15.40
2023-11-11T14:35:57.666Z,25.90
2023-11-11T14:38:24.333Z,26.50
2023-11-11T14:40:51.300Z,24.70
2023-11-11T14:43:17.990Z,19.80
2023-11-11T14:45:45.156Z,20.60
2023-11-11T14:48:12.008Z,23.60
2023-11-11T14:50:39.959Z,27.60
2023-11-11T14:53:06.670Z,27.10
2023-11-11T14:55:33.314Z,22.00
2023-11-11T14:58:02.818Z,24.10
2023-11-11T15:00:37.661Z,24.10
2023-11-11T15:03:05.136Z,23.30
2023-11-11T15:05:35.263Z,25.60
2023-11-11T15:08:02.090Z,22.50
2023-11-11T15:10:29.975Z,20.60
2023-11-11T15:12:57.899Z,20.50
2023-11-11T15:15:30.258Z,22.70
2023-11-11T15:17:58.183Z,21.50
2023-11-11T15:20:25.200Z,29.70
2023-11-11T15:22:55.546Z,28.20
2023-11-11T15:25:24.741Z,27.20
2023-11-11T15:27:52.214Z,30.00
2023-11-11T15:30:20.583Z,32.00
2023-11-11T15:32:48.860Z,38.10
2023-11-11T15:35:17.310Z,32.70
2023-11-11T15:37:45.110Z,34.70
2023-11-11T15:40:12.770Z,30.50
2023-11-11T15:42:40.342Z,30.90
2023-11-11T15:45:10.350Z,31.10
2023-11-11T15:47:37.713Z,26.90
2023-11-11T15:50:08.059Z,29.90
2023-11-11T15:52:35.276Z,25.70
2023-11-11T15:55:06.012Z,22.30
2023-11-11T15:57:34.030Z,28.30
2023-11-11T16:00:00.880Z,21.70
2023-11-11T16:02:28.863Z,34.30
2023-11-11T16:04:56.013Z,30.00
2023-11-11T16:07:23.819Z,36.40
2023-11-11T16:09:51.735Z,28.10
2023-11-11T16:12:19.703Z,24.70
2023-11-11T16:14:47.945Z,20.30
2023-11-11T16:17:15.336Z,25.20
2023-11-11T16:19:44.961Z,27.00
2023-11-11T16:22:11.645Z,24.00
2023-11-11T16:24:38.545Z,22.20
2023-11-11T16:27:05.390Z,23.30
2023-11-11T16:29:32.243Z,22.30
2023-11-11T16:31:59.653Z,17.00
2023-11-11T16:34:26.452Z,16.40
2023-11-11T16:36:53.190Z,13.90
2023-11-11T16:39:20.275Z,14.20
2023-11-11T16:41:51.605Z,17.00
2023-11-11T16:44:20.617Z,13.70
2023-11-11T16:46:47.177Z,19.90
2023-11-11T16:49:13.883Z,19.00
2023-11-11T16:51:40.982Z,20.70
2023-11-11T16:54:07.920Z,18.90
2023-11-11T16:56:35.009Z,20.10
2023-11-11T16:59:01.700Z,16.80
2023-11-11T17:01:28.651Z,16.10
2023-11-11T17:03:57.809Z,13.50
2023-11-11T17:06:25.487Z,15.90
2023-11-11T17:08:52.385Z,14.50
2023-11-11T17:11:19.005Z,17.10
2023-11-11T17:13:45.976Z,16.20
2023-11-11T17:16:12.866Z,17.80
2023-11-11T17:18:39.590Z,16.20
2023-11-11T17:21:07.788Z,14.00
2023-11-11T17:23:34.687Z,12.70
2023-11-11T17:26:03.765Z,14.30
2023-11-11T17:28:31.696Z,13.90
2023-11-11T17:30:58.483Z,16.30
2023-11-11T17:33:35.269Z,12.70
2023-11-11T17:36:10.343Z,13.60
2023-11-11T17:38:39.477Z,13.10
2023-11-11T17:41:12.402Z,15.10
2023-11-11T17:43:42.243Z,15.60
2023-11-11T17:46:09.151Z,15.60
2023-11-11T17:48:38.744Z,17.20
2023-11-11T17:51:05.594Z,16.30
2023-11-11T17:53:32.305Z,18.60
2023-11-11T17:56:00.650Z,17.20
2023-11-11T17:58:28.092Z,22.60
2023-11-11T18:00:54.944Z,24.20
2023-11-11T18:03:21.671Z,26.40
2023-11-11T18:05:48.401Z,24.00
2023-11-11T18:08:15.037Z,27.40
2023-11-11T18:10:42.165Z,30.90
2023-11-11T18:13:09.024Z,32.30
2023-11-11T18:15:36.291Z,27.00
2023-11-11T18:18:03.639Z,31.10
2023-11-11T18:20:31.111Z,29.30
2023-11-11T18:22:57.997Z,26.60
2023-11-11T18:25:24.870Z,21.70
2023-11-11T18:27:51.629Z,18.60
2023-11-11T18:30:20.596Z,22.70
2023-11-11T18:32:47.404Z,20.60
2023-11-11T18:35:14.252Z,17.90
2023-11-11T18:37:41.005Z,16.00
2023-11-11T18:40:09.541Z,15.50
2023-11-11T18:42:36.541Z,16.10
2023-11-11T18:45:04.350Z,16.90
2023-11-11T18:47:33.617Z,18.50
2023-11-11T18:50:12.191Z,17.80
2023-11-11T18:52:47.657Z,15.60
2023-11-11T18:55:14.393Z,13.10
2023-11-11T18:57:42.221Z,16.00
2023-11-11T19:00:11.198Z,13.50
2023-11-11T19:02:38.788Z,12.30
2023-11-11T19:05:07.420Z,11.20
2023-11-11T19:07:34.223Z,9.50
2023-11-11T19:10:01.349Z,9.20
2023-11-11T19:12:29.209Z,8.90
2023-11-11T19:14:56.107Z,10.10
2023-11-11T19:17:23.274Z,10.10
2023-11-11T19:19:49.998Z,12.30
2023-11-11T19:22:16.738Z,10.80
2023-11-11T19:24:43.485Z,9.30
2023-11-11T19:27:11.187Z,12.10
2023-11-11T19:29:39.487Z,11.70
2023-11-11T19:32:06.670Z,10.50
2023-11-11T19:34:35.495Z,10.90
2023-11-11T19:37:03.212Z,9.90
2023-11-11T19:39:30.401Z,9.60
2023-11-11T19:41:58.265Z,10.20
2023-11-11T19:44:25.189Z,10.40
2023-11-11T19:46:52.891Z,11.00
2023-11-11T19:49:19.840Z,10.80
2023-11-11T19:51:46.646Z,10.20
2023-11-11T19:54:15.349Z,11.50
2023-11-11T19:56:45.221Z,12.10
2023-11-11T19:59:12.526Z,12.20
2023-11-11T20:01:39.820Z,12.30
2023-11-11T20:04:07.821Z,13.50
2023-11-11T20:06:34.842Z,12.80
2023-11-11T20:09:02.416Z,16.30
2023-11-11T20:11:29.603Z,14.60
2023-11-11T20:13:56.584Z,14.60
2023-11-11T20:16:23.388Z,14.40
2023-11-11T20:18:50.255Z,15.40
2023-11-11T20:21:17.078Z,15.10
2023-11-11T20:23:43.865Z,17.90
2023-11-11T20:26:10.620Z,19.90
2023-11-11T20:28:37.456Z,27.20
2023-11-11T20:31:04.232Z,19.70
2023-11-11T20:33:33.909Z,20.70
2023-11-11T20:36:00.712Z,21.50
2023-11-11T20:38:32.200Z,20.00
2023-11-11T20:41:00.333Z,20.20
2023-11-11T20:43:33.978Z,20.00
2023-11-11T20:46:00.845Z,20.90
2023-11-11T20:48:27.492Z,21.30
2023-11-11T20:50:54.744Z,21.90
2023-11-11T20:53:21.516Z,21.80
2023-11-11T20:55:48.259Z,21.90
2023-11-11T20:58:15.245Z,23.10
2023-11-11T21:00:42.105Z,23.00
2023-11-11T21:03:09.122Z,22.10
2023-11-11T21:05:35.801Z,22.90
2023-11-11T21:08:02.550Z,40.60
2023-11-11T21:10:30.096Z,28.50
2023-11-11T21:12:59.743Z,29.80
2023-11-11T21:15:26.434Z,22.30
2023-11-11T21:17:54.445Z,28.70
2023-11-11T21:20:21.123Z,27.80
2023-11-11T21:22:50.625Z,26.60
2023-11-11T21:25:19.431Z,24.40
2023-11-11T21:27:46.708Z,26.20
2023-11-11T21:30:14.228Z,26.10
2023-11-11T21:32:41.384Z,25.70
2023-11-11T21:35:09.798Z,27.90
2023-11-11T21:37:36.484Z,25.40
2023-11-11T21:40:05.156Z,29.60
2023-11-11T21:42:32.937Z,27.90
2023-11-11T21:44:59.696Z,27.70
2023-11-11T21:47:28.048Z,30.40
2023-11-11T21:49:54.877Z,29.90
2023-11-11T21:52:21.530Z,32.90
2023-11-11T21:54:48.240Z,28.50
2023-11-11T21:57:15.253Z,27.70
2023-11-11T21:59:41.895Z,35.30
2023-11-11T22:02:08.499Z,33.80
2023-11-11T22:04:38.836Z,32.10
2023-11-11T22:07:05.419Z,41.80
2023-11-11T22:09:32.050Z,39.80
2023-11-11T22:11:58.648Z,35.10
2023-11-11T22:14:26.144Z,32.70
2023-11-11T22:16:53.192Z,32.30
2023-11-11T22:19:20.597Z,41.10
2023-11-11T22:21:47.668Z,33.50
2023-11-11T22:24:14.439Z,31.70
2023-11-11T22:26:41.140Z,32.60
2023-11-11T22:29:07.853Z,32.20
2023-11-11T22:31:34.631Z,32.80
2023-11-11T22:34:01.512Z,28.20
2023-11-11T22:36:28.417Z,45.70
2023-11-11T22:38:55.242Z,39.10
2023-11-11T22:41:22.261Z,27.90
2023-11-11T22:43:51.351Z,28.20
2023-11-11T22:46:20.025Z,31.50
2023-11-11T22:48:46.662Z,46.70
2023-11-11T22:51:13.390Z,32.10
2023-11-11T22:53:40.556Z,29.70
2023-11-11T22:56:07.450Z,29.60
2023-11-11T22:58:34.979Z,35.40
2023-11-11T23:01:01.772Z,31.50
2023-11-11T23:03:30.589Z,36.80
2023-11-11T23:05:57.506Z,27.10
2023-11-11T23:08:24.830Z,34.70
2023-11-11T23:10:51.733Z,29.30
2023-11-11T23:13:18.595Z,29.20
2023-11-11T23:15:45.417Z,33.40
2023-11-11T23:18:12.428Z,26.60
2023-11-11T23:20:41.383Z,25.80
2023-11-11T23:23:09.807Z,26.60
2023-11-11T23:25:37.607Z,26.00
2023-11-11T23:28:04.989Z,36.90
2023-11-11T23:30:32.458Z,28.20
2023-11-11T23:32:59.938Z,23.40
2023-11-11T23:35:27.511Z,24.00
2023-11-11T23:37:57.405Z,23.20
2023-11-11T23:40:24.142Z,22.70
2023-11-11T23:42:50.707Z,25.40
2023-11-11T23:45:18.237Z,19.80
2023-11-11T23:47:45.310Z,18.10
2023-11-11T23:50:12.732Z,20.30
2023-11-11T23:52:39.573Z,19.80
2023-11-11T23:55:08.127Z,22.50
2023-11-11T23:57:34.852Z,17.80
